sensor_id;sensor_type;location;lat;lon;timestamp;pressure;altitude;pressure_sealevel;temperature;humidity
54022;BME280;39936;51.058;17.220;2022-07-09T00:02:47;102451.52;;;15.94;79.69
54022;BME280;39936;51.058;17.220;2022-07-09T00:05:53;102448.76;;;15.95;79.94
54022;BME280;39936;51.058;17.220;2022-07-09T00:09:04;102453.95;;;15.95;80.09
54022;BME280;39936;51.058;17.220;2022-07-09T00:12:12;102452.38;;;15.97;80.25
54022;BME280;39936;51.058;17.220;2022-07-09T00:15:42;102458.41;;;15.97;80.57
54022;BME280;39936;51.058;17.220;2022-07-09T00:19:56;102458.41;;;15.97;80.83
54022;BME280;39936;51.058;17.220;2022-07-09T00:23:25;102459.31;;;15.98;80.78
54022;BME280;39936;51.058;17.220;2022-07-09T00:27:08;102459.13;;;15.97;80.67
54022;BME280;39936;51.058;17.220;2022-07-09T00:30:38;102460.05;;;15.96;80.84
54022;BME280;39936;51.058;17.220;2022-07-09T00:34:05;102454.84;;;15.92;80.89
54022;BME280;39936;51.058;17.220;2022-07-09T00:37:27;102456.66;;;15.89;81.31
54022;BME280;39936;51.058;17.220;2022-07-09T00:40:36;102456.04;;;15.85;81.41
54022;BME280;39936;51.058;17.220;2022-07-09T00:44:06;102450.76;;;15.81;81.51
54022;BME280;39936;51.058;17.220;2022-07-09T00:47:29;102449.68;;;15.80;81.72
54022;BME280;39936;51.058;17.220;2022-07-09T00:50:40;102449.34;;;15.78;81.85
54022;BME280;39936;51.058;17.220;2022-07-09T00:54:00;102443.84;;;15.76;81.99
54022;BME280;39936;51.058;17.220;2022-07-09T00:57:30;102443.80;;;15.72;82.16
54022;BME280;39936;51.058;17.220;2022-07-09T01:00:51;102442.40;;;15.69;82.42
54022;BME280;39936;51.058;17.220;2022-07-09T01:04:21;102436.98;;;15.60;82.81
54022;BME280;39936;51.058;17.220;2022-07-09T01:07:52;102433.74;;;15.55;83.27
54022;BME280;39936;51.058;17.220;2022-07-09T01:11:16;102430.71;;;15.49;83.49
54022;BME280;39936;51.058;17.220;2022-07-09T01:15:27;102423.62;;;15.46;83.76
54022;BME280;39936;51.058;17.220;2022-07-09T01:18:50;102422.73;;;15.44;83.84
54022;BME280;39936;51.058;17.220;2022-07-09T01:22:18;102415.56;;;15.41;83.97
54022;BME280;39936;51.058;17.220;2022-07-09T01:25:59;102415.21;;;15.40;84.07
54022;BME280;39936;51.058;17.220;2022-07-09T01:29:26;102419.74;;;15.38;84.33
54022;BME280;39936;51.058;17.220;2022-07-09T01:32:45;102414.45;;;15.35;85.29
54022;BME280;39936;51.058;17.220;2022-07-09T01:36:27;102415.95;;;15.30;85.00
54022;BME280;39936;51.058;17.220;2022-07-09T01:39:56;102413.94;;;15.15;86.81
54022;BME280;39936;51.058;17.220;2022-07-09T01:43:06;102418.09;;;15.02;87.16
54022;BME280;39936;51.058;17.220;2022-07-09T01:46:15;102415.33;;;14.91;87.71
54022;BME280;39936;51.058;17.220;2022-07-09T01:49:56;102415.54;;;14.87;87.66
54022;BME280;39936;51.058;17.220;2022-07-09T01:53:16;102410.30;;;14.77;87.73
54022;BME280;39936;51.058;17.220;2022-07-09T01:56:28;102410.25;;;14.74;88.15
54022;BME280;39936;51.058;17.220;2022-07-09T02:00:00;102409.03;;;14.65;88.74
54022;BME280;39936;51.058;17.220;2022-07-09T02:03:11;102405.34;;;14.54;90.12
54022;BME280;39936;51.058;17.220;2022-07-09T02:06:50;102407.62;;;14.44;92.52
54022;BME280;39936;51.058;17.220;2022-07-09T02:09:58;102405.16;;;14.27;94.55
54022;BME280;39936;51.058;17.220;2022-07-09T02:13:29;102400.80;;;14.19;95.05
54022;BME280;39936;51.058;17.220;2022-07-09T02:17:21;102391.62;;;14.19;95.15
54022;BME280;39936;51.058;17.220;2022-07-09T02:21:01;102391.75;;;14.23;94.70
54022;BME280;39936;51.058;17.220;2022-07-09T02:24:34;102389.29;;;14.27;95.05
54022;BME280;39936;51.058;17.220;2022-07-09T02:28:06;102389.14;;;14.33;95.01
54022;BME280;39936;51.058;17.220;2022-07-09T02:31:47;102388.23;;;14.35;95.68
54022;BME280;39936;51.058;17.220;2022-07-09T02:35:21;102381.86;;;14.35;96.38
54022;BME280;39936;51.058;17.220;2022-07-09T02:38:32;102379.46;;;14.34;97.29
54022;BME280;39936;51.058;17.220;2022-07-09T02:42:05;102381.55;;;14.31;96.60
54022;BME280;39936;51.058;17.220;2022-07-09T02:45:35;102380.54;;;14.37;96.82
54022;BME280;39936;51.058;17.220;2022-07-09T02:49:14;102383.73;;;14.41;97.39
54022;BME280;39936;51.058;17.220;2022-07-09T02:56:49;102375.42;;;14.44;96.90
54022;BME280;39936;51.058;17.220;2022-07-09T03:00:17;102370.89;;;14.53;96.82
54022;BME280;39936;51.058;17.220;2022-07-09T03:03:39;102369.07;;;14.51;97.06
54022;BME280;39936;51.058;17.220;2022-07-09T03:06:47;102365.70;;;14.49;97.10
54022;BME280;39936;51.058;17.220;2022-07-09T03:10:21;102364.66;;;14.44;97.64
54022;BME280;39936;51.058;17.220;2022-07-09T03:13:32;102362.93;;;14.43;97.70
54022;BME280;39936;51.058;17.220;2022-07-09T03:16:59;102363.86;;;14.40;98.26
54022;BME280;39936;51.058;17.220;2022-07-09T03:20:28;102360.05;;;14.37;98.49
54022;BME280;39936;51.058;17.220;2022-07-09T03:24:12;102361.72;;;14.41;98.33
54022;BME280;39936;51.058;17.220;2022-07-09T03:27:38;102357.97;;;14.51;97.36
54022;BME280;39936;51.058;17.220;2022-07-09T03:30:48;102355.84;;;14.57;96.98
54022;BME280;39936;51.058;17.220;2022-07-09T03:34:00;102356.36;;;14.62;96.09
54022;BME280;39936;51.058;17.220;2022-07-09T03:37:33;102350.41;;;14.65;95.76
54022;BME280;39936;51.058;17.220;2022-07-09T03:40:45;102346.64;;;14.70;95.27
54022;BME280;39936;51.058;17.220;2022-07-09T03:44:16;102340.79;;;14.76;95.12
54022;BME280;39936;51.058;17.220;2022-07-09T03:47:29;102341.03;;;14.89;94.13
54022;BME280;39936;51.058;17.220;2022-07-09T03:51:32;102342.96;;;15.04;93.13
54022;BME280;39936;51.058;17.220;2022-07-09T03:55:17;102337.54;;;15.28;91.64
54022;BME280;39936;51.058;17.220;2022-07-09T03:58:27;102332.71;;;15.57;90.86
54022;BME280;39936;51.058;17.220;2022-07-09T04:01:39;102330.97;;;16.20;87.88
54022;BME280;39936;51.058;17.220;2022-07-09T04:05:14;102319.57;;;16.78;83.83
54022;BME280;39936;51.058;17.220;2022-07-09T04:08:43;102322.74;;;17.10;80.46
54022;BME280;39936;51.058;17.220;2022-07-09T04:11:51;102323.30;;;17.32;79.10
54022;BME280;39936;51.058;17.220;2022-07-09T04:15:35;102320.30;;;17.33;77.72
54022;BME280;39936;51.058;17.220;2022-07-09T04:18:46;102319.05;;;17.18;78.89
54022;BME280;39936;51.058;17.220;2022-07-09T04:22:07;102317.23;;;17.14;78.80
54022;BME280;39936;51.058;17.220;2022-07-09T04:25:28;102319.76;;;17.03;78.14
54022;BME280;39936;51.058;17.220;2022-07-09T04:29:40;102320.77;;;16.44;80.09
54022;BME280;39936;51.058;17.220;2022-07-09T04:33:22;102326.13;;;16.11;82.63
54022;BME280;39936;51.058;17.220;2022-07-09T04:36:49;102328.41;;;15.86;84.89
54022;BME280;39936;51.058;17.220;2022-07-09T04:40:45;102327.38;;;15.70;86.01
54022;BME280;39936;51.058;17.220;2022-07-09T04:43:55;102326.81;;;15.63;86.94
54022;BME280;39936;51.058;17.220;2022-07-09T04:47:06;102327.98;;;15.72;87.79
54022;BME280;39936;51.058;17.220;2022-07-09T04:50:16;102330.77;;;15.88;86.57
54022;BME280;39936;51.058;17.220;2022-07-09T04:53:30;102326.88;;;15.89;85.78
54022;BME280;39936;51.058;17.220;2022-07-09T04:57:35;102327.41;;;15.84;85.78
54022;BME280;39936;51.058;17.220;2022-07-09T05:01:16;102321.66;;;15.79;86.72
54022;BME280;39936;51.058;17.220;2022-07-09T05:05:21;102317.55;;;15.87;86.57
54022;BME280;39936;51.058;17.220;2022-07-09T05:08:42;102319.95;;;15.95;86.80
54022;BME280;39936;51.058;17.220;2022-07-09T05:12:38;102317.60;;;16.09;85.67
54022;BME280;39936;51.058;17.220;2022-07-09T05:15:50;102320.69;;;15.94;85.37
54022;BME280;39936;51.058;17.220;2022-07-09T05:19:26;102325.59;;;15.74;86.39
54022;BME280;39936;51.058;17.220;2022-07-09T05:22:55;102327.23;;;15.62;87.65
54022;BME280;39936;51.058;17.220;2022-07-09T05:26:06;102328.36;;;15.56;88.55
54022;BME280;39936;51.058;17.220;2022-07-09T05:29:35;102327.88;;;15.65;88.47
54022;BME280;39936;51.058;17.220;2022-07-09T05:32:55;102325.30;;;15.77;87.31
54022;BME280;39936;51.058;17.220;2022-07-09T05:36:22;102325.35;;;15.91;87.68
54022;BME280;39936;51.058;17.220;2022-07-09T05:39:44;102328.41;;;16.12;86.15
54022;BME280;39936;51.058;17.220;2022-07-09T05:43:16;102320.20;;;16.23;85.32
54022;BME280;39936;51.058;17.220;2022-07-09T05:50:31;102308.04;;;16.49;83.87
54022;BME280;39936;51.058;17.220;2022-07-09T05:53:41;102310.86;;;16.62;84.25
54022;BME280;39936;51.058;17.220;2022-07-09T05:58:05;102293.38;;;16.84;83.16
54022;BME280;39936;51.058;17.220;2022-07-09T06:01:36;102292.34;;;16.89;81.47
54022;BME280;39936;51.058;17.220;2022-07-09T06:04:50;102291.55;;;16.75;82.23
54022;BME280;39936;51.058;17.220;2022-07-09T06:08:22;102292.43;;;16.78;83.44
54022;BME280;39936;51.058;17.220;2022-07-09T06:12:05;102284.54;;;16.99;81.86
54022;BME280;39936;51.058;17.220;2022-07-09T06:15:29;102286.80;;;17.11;81.57
54022;BME280;39936;51.058;17.220;2022-07-09T06:18:59;102284.10;;;17.28;82.48
54022;BME280;39936;51.058;17.220;2022-07-09T06:22:30;102281.70;;;17.53;79.19
54022;BME280;39936;51.058;17.220;2022-07-09T06:26:33;102279.97;;;17.63;78.87
54022;BME280;39936;51.058;17.220;2022-07-09T06:29:44;102274.82;;;17.66;78.64
54022;BME280;39936;51.058;17.220;2022-07-09T06:33:08;102274.26;;;17.69;78.07
54022;BME280;39936;51.058;17.220;2022-07-09T06:36:36;102275.83;;;17.69;78.77
54022;BME280;39936;51.058;17.220;2022-07-09T06:39:47;102276.20;;;17.72;77.08
54022;BME280;39936;51.058;17.220;2022-07-09T06:43:13;102269.55;;;17.73;77.60
54022;BME280;39936;51.058;17.220;2022-07-09T06:46:52;102267.23;;;17.82;76.00
54022;BME280;39936;51.058;17.220;2022-07-09T06:50:21;102264.54;;;17.79;76.48
54022;BME280;39936;51.058;17.220;2022-07-09T06:54:03;102266.04;;;17.85;74.21
54022;BME280;39936;51.058;17.220;2022-07-09T06:57:33;102260.14;;;18.02;73.12
54022;BME280;39936;51.058;17.220;2022-07-09T07:01:25;102258.27;;;18.16;73.81
54022;BME280;39936;51.058;17.220;2022-07-09T07:05:24;102256.34;;;18.21;72.11
54022;BME280;39936;51.058;17.220;2022-07-09T07:12:25;102252.48;;;18.05;66.97
54022;BME280;39936;51.058;17.220;2022-07-09T07:21:17;102245.30;;;18.24;67.44
54022;BME280;39936;51.058;17.220;2022-07-09T07:24:37;102246.97;;;18.31;67.07
54022;BME280;39936;51.058;17.220;2022-07-09T07:28:41;102240.39;;;18.52;66.72
54022;BME280;39936;51.058;17.220;2022-07-09T07:32:36;102234.32;;;18.73;64.62
54022;BME280;39936;51.058;17.220;2022-07-09T07:36:00;102236.83;;;18.83;61.27
54022;BME280;39936;51.058;17.220;2022-07-09T07:39:11;102231.30;;;18.83;59.82
54022;BME280;39936;51.058;17.220;2022-07-09T07:42:51;102228.71;;;18.90;61.20
54022;BME280;39936;51.058;17.220;2022-07-09T07:46:31;102228.51;;;18.99;62.20
54022;BME280;39936;51.058;17.220;2022-07-09T07:49:39;102232.38;;;19.18;60.99
54022;BME280;39936;51.058;17.220;2022-07-09T07:52:46;102233.80;;;18.91;61.41
54022;BME280;39936;51.058;17.220;2022-07-09T07:55:55;102237.03;;;18.69;60.07
54022;BME280;39936;51.058;17.220;2022-07-09T07:59:08;102233.86;;;18.83;62.52
54022;BME280;39936;51.058;17.220;2022-07-09T08:02:37;102229.42;;;19.16;58.49
54022;BME280;39936;51.058;17.220;2022-07-09T08:06:20;102226.59;;;19.25;59.74
54022;BME280;39936;51.058;17.220;2022-07-09T08:10:18;102233.01;;;19.05;57.27
54022;BME280;39936;51.058;17.220;2022-07-09T08:13:26;102236.06;;;18.86;59.38
54022;BME280;39936;51.058;17.220;2022-07-09T08:17:07;102235.11;;;18.91;56.52
54022;BME280;39936;51.058;17.220;2022-07-09T08:20:17;102232.44;;;19.04;55.14
54022;BME280;39936;51.058;17.220;2022-07-09T08:23:46;102229.54;;;19.19;55.25
54022;BME280;39936;51.058;17.220;2022-07-09T08:27:27;102225.21;;;19.42;56.49
54022;BME280;39936;51.058;17.220;2022-07-09T08:31:20;102223.74;;;19.63;53.06
54022;BME280;39936;51.058;17.220;2022-07-09T08:35:11;102218.39;;;19.68;54.45
54022;BME280;39936;51.058;17.220;2022-07-09T08:48:19;102211.94;;;19.38;55.53
54022;BME280;39936;51.058;17.220;2022-07-09T08:52:20;102203.13;;;19.63;52.73
54022;BME280;39936;51.058;17.220;2022-07-09T08:55:32;102215.45;;;19.67;53.83
54022;BME280;39936;51.058;17.220;2022-07-09T08:58:47;102214.77;;;19.63;53.16
54022;BME280;39936;51.058;17.220;2022-07-09T09:02:01;102212.06;;;19.67;51.54
54022;BME280;39936;51.058;17.220;2022-07-09T09:06:09;102215.91;;;19.70;49.47
54022;BME280;39936;51.058;17.220;2022-07-09T09:09:37;102196.85;;;19.70;53.61
54022;BME280;39936;51.058;17.220;2022-07-09T09:13:23;102194.55;;;20.04;51.74
54022;BME280;39936;51.058;17.220;2022-07-09T09:16:47;102186.22;;;20.18;50.44
54022;BME280;39936;51.058;17.220;2022-07-09T09:19:54;102185.31;;;20.23;48.30
54022;BME280;39936;51.058;17.220;2022-07-09T09:23:04;102184.61;;;20.18;47.27
54022;BME280;39936;51.058;17.220;2022-07-09T09:26:23;102182.68;;;20.17;48.70
54022;BME280;39936;51.058;17.220;2022-07-09T09:50:58;102118.41;;;20.18;48.88
54022;BME280;39936;51.058;17.220;2022-07-09T09:54:12;102144.31;;;20.62;47.67
54022;BME280;39936;51.058;17.220;2022-07-09T09:57:26;102149.86;;;20.57;44.01
54022;BME280;39936;51.058;17.220;2022-07-09T10:00:56;102152.38;;;20.34;46.14
54022;BME280;39936;51.058;17.220;2022-07-09T10:04:26;102150.96;;;20.27;46.51
54022;BME280;39936;51.058;17.220;2022-07-09T10:08:07;102136.70;;;20.38;48.42
54022;BME280;39936;51.058;17.220;2022-07-09T10:11:25;102130.44;;;20.84;45.85
54022;BME280;39936;51.058;17.220;2022-07-09T10:14:38;102137.84;;;20.97;42.02
54022;BME280;39936;51.058;17.220;2022-07-09T10:18:38;102140.70;;;20.60;43.27
54022;BME280;39936;51.058;17.220;2022-07-09T10:22:43;102118.89;;;20.52;44.98
54022;BME280;39936;51.058;17.220;2022-07-09T10:25:53;102116.27;;;20.68;46.13
54022;BME280;39936;51.058;17.220;2022-07-09T10:45:40;102094.73;;;21.31;48.83
54022;BME280;39936;51.058;17.220;2022-07-09T10:48:49;102085.61;;;21.43;45.50
54022;BME280;39936;51.058;17.220;2022-07-09T10:52:07;102089.55;;;21.62;44.14
54022;BME280;39936;51.058;17.220;2022-07-09T10:55:43;102093.88;;;21.37;43.61
54022;BME280;39936;51.058;17.220;2022-07-09T10:59:18;102093.44;;;21.30;45.29
54022;BME280;39936;51.058;17.220;2022-07-09T11:19:17;102076.33;;;21.55;44.16
54022;BME280;39936;51.058;17.220;2022-07-09T11:27:09;102083.12;;;21.49;43.22
54022;BME280;39936;51.058;17.220;2022-07-09T11:30:31;102083.36;;;21.54;43.71
54022;BME280;39936;51.058;17.220;2022-07-09T11:34:58;102069.04;;;21.82;43.40
54022;BME280;39936;51.058;17.220;2022-07-09T11:43:22;102069.87;;;22.27;40.59
54022;BME280;39936;51.058;17.220;2022-07-09T11:47:11;102064.97;;;21.91;42.34
54022;BME280;39936;51.058;17.220;2022-07-09T11:50:47;102064.26;;;21.96;41.04
54022;BME280;39936;51.058;17.220;2022-07-09T11:54:30;102063.43;;;21.95;42.04
54022;BME280;39936;51.058;17.220;2022-07-09T11:58:06;102060.43;;;22.24;42.75
54022;BME280;39936;51.058;17.220;2022-07-09T12:01:19;102059.88;;;22.33;41.46
54022;BME280;39936;51.058;17.220;2022-07-09T12:04:54;102041.45;;;22.16;42.87
54022;BME280;39936;51.058;17.220;2022-07-09T12:09:03;102049.30;;;22.30;43.90
54022;BME280;39936;51.058;17.220;2022-07-09T12:13:09;102046.16;;;22.45;41.66
54022;BME280;39936;51.058;17.220;2022-07-09T12:16:23;102049.51;;;22.53;40.35
54022;BME280;39936;51.058;17.220;2022-07-09T12:20:14;102043.93;;;22.27;40.69
54022;BME280;39936;51.058;17.220;2022-07-09T12:23:37;102048.42;;;22.12;43.25
54022;BME280;39936;51.058;17.220;2022-07-09T12:27:06;102042.60;;;21.93;42.01
54022;BME280;39936;51.058;17.220;2022-07-09T12:30:32;102038.67;;;21.77;44.24
54022;BME280;39936;51.058;17.220;2022-07-09T12:33:59;102045.73;;;21.78;45.13
54022;BME280;39936;51.058;17.220;2022-07-09T12:38:18;102031.57;;;21.97;44.21
54022;BME280;39936;51.058;17.220;2022-07-09T12:42:01;102035.71;;;21.75;43.77
54022;BME280;39936;51.058;17.220;2022-07-09T12:45:28;102038.75;;;21.65;44.22
54022;BME280;39936;51.058;17.220;2022-07-09T12:48:45;102034.33;;;21.66;44.76
54022;BME280;39936;51.058;17.220;2022-07-09T12:54:11;102028.33;;;21.51;43.94
54022;BME280;39936;51.058;17.220;2022-07-09T12:57:38;102016.11;;;21.68;43.16
54022;BME280;39936;51.058;17.220;2022-07-09T13:01:19;102023.63;;;21.75;44.05
54022;BME280;39936;51.058;17.220;2022-07-09T13:04:33;102020.34;;;21.78;43.22
54022;BME280;39936;51.058;17.220;2022-07-09T13:07:44;102025.15;;;21.81;44.83
54022;BME280;39936;51.058;17.220;2022-07-09T13:11:25;102017.59;;;21.57;44.49
54022;BME280;39936;51.058;17.220;2022-07-09T13:15:23;102020.27;;;21.44;46.34
54022;BME280;39936;51.058;17.220;2022-07-09T13:19:00;102015.93;;;21.65;45.54
54022;BME280;39936;51.058;17.220;2022-07-09T13:22:20;102016.59;;;21.89;44.52
54022;BME280;39936;51.058;17.220;2022-07-09T13:25:31;102007.63;;;21.62;44.80
54022;BME280;39936;51.058;17.220;2022-07-09T13:28:44;102018.61;;;21.34;46.13
54022;BME280;39936;51.058;17.220;2022-07-09T13:31:54;102021.23;;;21.06;45.86
54022;BME280;39936;51.058;17.220;2022-07-09T13:35:37;102018.63;;;20.77;47.60
54022;BME280;39936;51.058;17.220;2022-07-09T13:38:43;102026.33;;;20.58;48.79
54022;BME280;39936;51.058;17.220;2022-07-09T13:41:54;102022.62;;;20.39;49.30
54022;BME280;39936;51.058;17.220;2022-07-09T13:45:07;102029.00;;;20.25;49.59
54022;BME280;39936;51.058;17.220;2022-07-09T13:48:27;102015.27;;;20.20;50.90
54022;BME280;39936;51.058;17.220;2022-07-09T13:51:53;102023.45;;;20.18;50.49
54022;BME280;39936;51.058;17.220;2022-07-09T13:55:04;102013.89;;;20.09;50.50
54022;BME280;39936;51.058;17.220;2022-07-09T13:58:13;102028.84;;;19.86;51.42
54022;BME280;39936;51.058;17.220;2022-07-09T14:01:25;102024.83;;;19.61;52.80
54022;BME280;39936;51.058;17.220;2022-07-09T14:04:54;102022.56;;;19.39;52.83
54022;BME280;39936;51.058;17.220;2022-07-09T14:08:24;102022.55;;;19.28;54.33
54022;BME280;39936;51.058;17.220;2022-07-09T14:11:35;102013.24;;;19.35;55.09
54022;BME280;39936;51.058;17.220;2022-07-09T14:14:44;102010.15;;;19.46;55.10
54022;BME280;39936;51.058;17.220;2022-07-09T14:18:04;102014.13;;;19.56;54.85
54022;BME280;39936;51.058;17.220;2022-07-09T14:21:11;102013.60;;;19.60;54.74
54022;BME280;39936;51.058;17.220;2022-07-09T14:24:32;102006.51;;;19.52;54.74
54022;BME280;39936;51.058;17.220;2022-07-09T14:27:42;102004.54;;;19.50;56.17
54022;BME280;39936;51.058;17.220;2022-07-09T14:31:23;101999.77;;;19.44;55.80
54022;BME280;39936;51.058;17.220;2022-07-09T14:34:30;102000.53;;;19.42;56.69
54022;BME280;39936;51.058;17.220;2022-07-09T14:38:33;101995.30;;;19.52;56.45
54022;BME280;39936;51.058;17.220;2022-07-09T14:42:16;101996.50;;;19.61;55.28
54022;BME280;39936;51.058;17.220;2022-07-09T14:45:56;101993.80;;;19.47;52.58
54022;BME280;39936;51.058;17.220;2022-07-09T14:49:05;101990.45;;;19.26;53.52
54022;BME280;39936;51.058;17.220;2022-07-09T14:52:47;101996.84;;;19.17;52.97
54022;BME280;39936;51.058;17.220;2022-07-09T14:55:59;101992.20;;;19.25;53.29
54022;BME280;39936;51.058;17.220;2022-07-09T14:59:09;101992.68;;;19.25;54.28
54022;BME280;39936;51.058;17.220;2022-07-09T15:02:24;101986.31;;;19.17;53.40
54022;BME280;39936;51.058;17.220;2022-07-09T15:05:35;101991.35;;;19.13;54.99
54022;BME280;39936;51.058;17.220;2022-07-09T15:08:59;101990.20;;;19.08;54.68
54022;BME280;39936;51.058;17.220;2022-07-09T15:13:03;101983.20;;;19.01;55.79
54022;BME280;39936;51.058;17.220;2022-07-09T15:16:34;101980.20;;;19.14;56.04
54022;BME280;39936;51.058;17.220;2022-07-09T15:20:16;101973.10;;;19.37;56.50
54022;BME280;39936;51.058;17.220;2022-07-09T15:23:36;101960.35;;;19.63;57.15
54022;BME280;39936;51.058;17.220;2022-07-09T15:27:07;101961.16;;;19.86;55.72
54022;BME280;39936;51.058;17.220;2022-07-09T15:31:13;101951.81;;;20.07;55.08
54022;BME280;39936;51.058;17.220;2022-07-09T15:34:36;101951.01;;;20.08;56.00
54022;BME280;39936;51.058;17.220;2022-07-09T15:42:32;101936.22;;;20.19;56.82
54022;BME280;39936;51.058;17.220;2022-07-09T15:47:06;101932.85;;;20.20;55.98
54022;BME280;39936;51.058;17.220;2022-07-09T15:50:28;101928.81;;;20.07;56.55
54022;BME280;39936;51.058;17.220;2022-07-09T15:53:47;101922.87;;;19.99;57.66
54022;BME280;39936;51.058;17.220;2022-07-09T15:57:27;101917.28;;;20.05;57.23
54022;BME280;39936;51.058;17.220;2022-07-09T16:01:06;101920.61;;;19.98;57.53
54022;BME280;39936;51.058;17.220;2022-07-09T16:04:31;101908.99;;;20.02;57.52
54022;BME280;39936;51.058;17.220;2022-07-09T16:07:42;101907.41;;;19.85;58.38
54022;BME280;39936;51.058;17.220;2022-07-09T16:11:14;101898.74;;;20.11;57.86
54022;BME280;39936;51.058;17.220;2022-07-09T16:14:37;101903.93;;;20.24;56.59
54022;BME280;39936;51.058;17.220;2022-07-09T16:18:49;101903.18;;;20.03;56.33
54022;BME280;39936;51.058;17.220;2022-07-09T16:21:58;101900.34;;;19.97;57.24
54022;BME280;39936;51.058;17.220;2022-07-09T16:25:40;101899.74;;;20.02;57.14
54022;BME280;39936;51.058;17.220;2022-07-09T16:29:08;101893.05;;;20.08;56.92
54022;BME280;39936;51.058;17.220;2022-07-09T16:32:40;101896.55;;;20.12;56.81
54022;BME280;39936;51.058;17.220;2022-07-09T16:36:23;101898.87;;;20.14;57.45
54022;BME280;39936;51.058;17.220;2022-07-09T16:39:59;101893.39;;;20.23;56.32
54022;BME280;39936;51.058;17.220;2022-07-09T16:43:12;101894.89;;;20.18;56.12
54022;BME280;39936;51.058;17.220;2022-07-09T16:46:24;101895.07;;;20.11;56.76
54022;BME280;39936;51.058;17.220;2022-07-09T16:49:36;101894.37;;;20.02;57.86
54022;BME280;39936;51.058;17.220;2022-07-09T16:52:44;101897.00;;;20.05;56.46
54022;BME280;39936;51.058;17.220;2022-07-09T16:56:06;101888.83;;;20.04;57.31
54022;BME280;39936;51.058;17.220;2022-07-09T16:59:43;101887.39;;;20.00;56.25
54022;BME280;39936;51.058;17.220;2022-07-09T17:03:14;101887.63;;;19.81;56.78
54022;BME280;39936;51.058;17.220;2022-07-09T17:06:44;101882.83;;;19.79;56.52
54022;BME280;39936;51.058;17.220;2022-07-09T17:10:16;101884.90;;;19.77;57.58
54022;BME280;39936;51.058;17.220;2022-07-09T17:13:42;101885.88;;;19.68;57.16
54022;BME280;39936;51.058;17.220;2022-07-09T17:17:11;101883.72;;;19.51;55.91
54022;BME280;39936;51.058;17.220;2022-07-09T17:21:22;101878.59;;;19.38;56.75
54022;BME280;39936;51.058;17.220;2022-07-09T17:24:52;101878.23;;;19.39;57.33
54022;BME280;39936;51.058;17.220;2022-07-09T17:28:41;101874.40;;;19.41;56.75
54022;BME280;39936;51.058;17.220;2022-07-09T17:32:07;101875.15;;;19.19;57.93
54022;BME280;39936;51.058;17.220;2022-07-09T17:35:30;101871.52;;;19.00;58.80
54022;BME280;39936;51.058;17.220;2022-07-09T17:38:54;101869.48;;;18.83;59.49
54022;BME280;39936;51.058;17.220;2022-07-09T17:45:17;101864.14;;;18.77;60.52
54022;BME280;39936;51.058;17.220;2022-07-09T17:48:41;101863.70;;;19.03;60.35
54022;BME280;39936;51.058;17.220;2022-07-09T17:52:07;101859.81;;;19.45;58.94
54022;BME280;39936;51.058;17.220;2022-07-09T17:56:42;101850.74;;;19.90;57.11
54022;BME280;39936;51.058;17.220;2022-07-09T18:00:20;101848.61;;;20.39;55.59
54022;BME280;39936;51.058;17.220;2022-07-09T18:04:06;101839.95;;;20.58;54.08
54022;BME280;39936;51.058;17.220;2022-07-09T18:11:20;101839.01;;;20.42;54.69
54022;BME280;39936;51.058;17.220;2022-07-09T18:15:17;101839.16;;;20.43;54.59
54022;BME280;39936;51.058;17.220;2022-07-09T18:18:31;101840.88;;;20.39;54.34
54022;BME280;39936;51.058;17.220;2022-07-09T18:21:41;101841.95;;;20.27;54.77
54022;BME280;39936;51.058;17.220;2022-07-09T18:25:15;101816.79;;;20.06;55.14
54022;BME280;39936;51.058;17.220;2022-07-09T18:32:49;101851.77;;;19.59;56.35
54022;BME280;39936;51.058;17.220;2022-07-09T18:36:22;101847.63;;;19.04;58.23
54022;BME280;39936;51.058;17.220;2022-07-09T18:39:53;101851.02;;;18.59;60.14
54022;BME280;39936;51.058;17.220;2022-07-09T18:43:02;101835.04;;;18.19;61.57
54022;BME280;39936;51.058;17.220;2022-07-09T18:47:08;101851.89;;;18.03;62.52
54022;BME280;39936;51.058;17.220;2022-07-09T18:50:20;101851.25;;;17.88;63.60
54022;BME280;39936;51.058;17.220;2022-07-09T18:54:01;101848.84;;;17.79;64.13
54022;BME280;39936;51.058;17.220;2022-07-09T18:58:20;101851.85;;;17.72;64.47
54022;BME280;39936;51.058;17.220;2022-07-09T19:01:46;101849.69;;;17.65;65.15
54022;BME280;39936;51.058;17.220;2022-07-09T19:06:00;101851.18;;;17.48;65.78
54022;BME280;39936;51.058;17.220;2022-07-09T19:09:19;101852.50;;;17.34;67.09
54022;BME280;39936;51.058;17.220;2022-07-09T19:13:02;101858.42;;;17.09;69.05
54022;BME280;39936;51.058;17.220;2022-07-09T19:16:32;101862.67;;;16.98;68.34
54022;BME280;39936;51.058;17.220;2022-07-09T19:20:08;101862.29;;;16.96;68.36
54022;BME280;39936;51.058;17.220;2022-07-09T19:27:50;101855.90;;;16.75;69.08
54022;BME280;39936;51.058;17.220;2022-07-09T19:31:43;101858.14;;;16.67;69.07
54022;BME280;39936;51.058;17.220;2022-07-09T19:35:15;101853.28;;;16.56;69.38
54022;BME280;39936;51.058;17.220;2022-07-09T19:38:26;101857.20;;;16.46;70.52
54022;BME280;39936;51.058;17.220;2022-07-09T19:42:10;101860.20;;;16.33;71.87
54022;BME280;39936;51.058;17.220;2022-07-09T19:45:43;101859.17;;;16.20;72.09
54022;BME280;39936;51.058;17.220;2022-07-09T19:48:53;101852.57;;;16.09;73.52
54022;BME280;39936;51.058;17.220;2022-07-09T19:52:23;101847.95;;;15.96;73.55
54022;BME280;39936;51.058;17.220;2022-07-09T19:55:38;101859.02;;;15.87;74.33